sensor_id;sensor_type;location;lat;lon;timestamp;temperature;humidity
6865;DHT22;3471;49.678;8.388;2023-01-23T00:00:36;3.30;99.90
6865;DHT22;3471;49.678;8.388;2023-01-23T00:03:02;3.30;99.90
6865;DHT22;3471;49.678;8.388;2023-01-23T00:05:28;3.30;99.90
6865;DHT22;3471;49.678;8.388;2023-01-23T00:07:53;3.30;99.90
6865;DHT22;3471;49.678;8.388;2023-01-23T00:10:19;3.30;99.90
6865;DHT22;3471;49.678;8.388;2023-01-23T00:12:45;3.30;99.90
6865;DHT22;3471;49.678;8.388;2023-01-23T00:15:14;3.30;99.90
6865;DHT22;3471;49.678;8.388;2023-01-23T00:17:40;3.30;99.90
6865;DHT22;3471;49.678;8.388;2023-01-23T00:20:08;3.30;99.90
6865;DHT22;3471;49.678;8.388;2023-01-23T00:22:33;3.30;99.90
6865;DHT22;3471;49.678;8.388;2023-01-23T00:24:59;3.30;99.90
6865;DHT22;3471;49.678;8.388;2023-01-23T00:27:25;3.30;99.90
6865;DHT22;3471;49.678;8.388;2023-01-23T00:29:53;3.30;99.90
6865;DHT22;3471;49.678;8.388;2023-01-23T00:32:19;3.40;99.90
6865;DHT22;3471;49.678;8.388;2023-01-23T00:34:45;3.40;99.90
6865;DHT22;3471;49.678;8.388;2023-01-23T00:37:11;3.40;99.90
6865;DHT22;3471;49.678;8.388;2023-01-23T00:39:36;3.40;99.90
6865;DHT22;3471;49.678;8.388;2023-01-23T00:42:02;3.30;99.90
6865;DHT22;3471;49.678;8.388;2023-01-23T00:44:28;3.40;99.90
6865;DHT22;3471;49.678;8.388;2023-01-23T00:46:55;3.40;99.90
6865;DHT22;3471;49.678;8.388;2023-01-23T00:49:21;3.40;99.90
6865;DHT22;3471;49.678;8.388;2023-01-23T00:51:46;3.40;99.90
6865;DHT22;3471;49.678;8.388;2023-01-23T00:54:12;3.40;99.90
6865;DHT22;3471;49.678;8.388;2023-01-23T00:56:38;3.40;99.90
6865;DHT22;3471;49.678;8.388;2023-01-23T00:59:04;3.30;99.90
6865;DHT22;3471;49.678;8.388;2023-01-23T01:01:29;3.30;99.90
6865;DHT22;3471;49.678;8.388;2023-01-23T01:03:57;3.40;99.90
6865;DHT22;3471;49.678;8.388;2023-01-23T01:06:23;3.40;99.90
6865;DHT22;3471;49.678;8.388;2023-01-23T01:08:49;3.40;99.90
6865;DHT22;3471;49.678;8.388;2023-01-23T01:11:15;3.40;99.90
6865;DHT22;3471;49.678;8.388;2023-01-23T01:13:42;3.40;99.90
6865;DHT22;3471;49.678;8.388;2023-01-23T01:16:08;3.30;99.90
6865;DHT22;3471;49.678;8.388;2023-01-23T01:18:33;3.40;99.90
6865;DHT22;3471;49.678;8.388;2023-01-23T01:20:59;3.30;99.90
6865;DHT22;3471;49.678;8.388;2023-01-23T01:23:25;3.30;99.90
6865;DHT22;3471;49.678;8.388;2023-01-23T01:25:51;3.30;99.90
6865;DHT22;3471;49.678;8.388;2023-01-23T01:28:17;3.30;99.90
6865;DHT22;3471;49.678;8.388;2023-01-23T01:30:42;3.30;99.90
6865;DHT22;3471;49.678;8.388;2023-01-23T01:33:08;3.30;99.90
6865;DHT22;3471;49.678;8.388;2023-01-23T01:35:37;3.30;99.90
6865;DHT22;3471;49.678;8.388;2023-01-23T01:38:02;3.30;99.90
6865;DHT22;3471;49.678;8.388;2023-01-23T01:40:32;3.30;99.90
6865;DHT22;3471;49.678;8.388;2023-01-23T01:43:04;3.30;99.90
6865;DHT22;3471;49.678;8.388;2023-01-23T01:46:06;3.30;99.90
6865;DHT22;3471;49.678;8.388;2023-01-23T01:48:39;3.20;99.90
6865;DHT22;3471;49.678;8.388;2023-01-23T01:53:39;3.20;99.90
6865;DHT22;3471;49.678;8.388;2023-01-23T01:56:09;3.20;99.90
6865;DHT22;3471;49.678;8.388;2023-01-23T01:58:35;3.20;99.90
6865;DHT22;3471;49.678;8.388;2023-01-23T02:01:01;3.20;99.90
6865;DHT22;3471;49.678;8.388;2023-01-23T02:03:27;3.20;99.90
6865;DHT22;3471;49.678;8.388;2023-01-23T02:05:53;3.20;99.90
6865;DHT22;3471;49.678;8.388;2023-01-23T02:08:27;3.20;99.90
6865;DHT22;3471;49.678;8.388;2023-01-23T02:10:54;3.20;99.90
6865;DHT22;3471;49.678;8.388;2023-01-23T02:15:59;3.20;99.90
6865;DHT22;3471;49.678;8.388;2023-01-23T02:18:27;3.20;99.90
6865;DHT22;3471;49.678;8.388;2023-01-23T02:20:55;3.20;99.90
6865;DHT22;3471;49.678;8.388;2023-01-23T02:24:00;3.10;99.90
6865;DHT22;3471;49.678;8.388;2023-01-23T02:26:36;3.20;99.90
6865;DHT22;3471;49.678;8.388;2023-01-23T02:29:03;3.20;99.90
6865;DHT22;3471;49.678;8.388;2023-01-23T02:31:29;3.20;99.90
6865;DHT22;3471;49.678;8.388;2023-01-23T02:33:57;3.20;99.90
6865;DHT22;3471;49.678;8.388;2023-01-23T02:36:26;3.20;99.90
6865;DHT22;3471;49.678;8.388;2023-01-23T02:39:09;3.10;99.90
6865;DHT22;3471;49.678;8.388;2023-01-23T02:41:40;3.10;99.90
6865;DHT22;3471;49.678;8.388;2023-01-23T02:46:38;3.20;99.90
6865;DHT22;3471;49.678;8.388;2023-01-23T02:49:04;3.20;99.90
6865;DHT22;3471;49.678;8.388;2023-01-23T02:51:30;3.20;99.90
6865;DHT22;3471;49.678;8.388;2023-01-23T02:53:56;3.20;99.90
6865;DHT22;3471;49.678;8.388;2023-01-23T02:56:22;3.10;99.90
6865;DHT22;3471;49.678;8.388;2023-01-23T02:58:48;3.10;99.90
6865;DHT22;3471;49.678;8.388;2023-01-23T03:01:32;3.10;99.90
6865;DHT22;3471;49.678;8.388;2023-01-23T03:04:01;3.10;99.90
6865;DHT22;3471;49.678;8.388;2023-01-23T03:06:29;3.00;99.90
6865;DHT22;3471;49.678;8.388;2023-01-23T03:09:01;3.00;99.90
6865;DHT22;3471;49.678;8.388;2023-01-23T03:11:27;3.00;99.90
6865;DHT22;3471;49.678;8.388;2023-01-23T03:13:53;3.00;99.90
6865;DHT22;3471;49.678;8.388;2023-01-23T03:16:19;2.90;99.90
6865;DHT22;3471;49.678;8.388;2023-01-23T03:18:44;3.00;99.90
6865;DHT22;3471;49.678;8.388;2023-01-23T03:21:10;3.00;99.90
6865;DHT22;3471;49.678;8.388;2023-01-23T03:23:39;3.00;99.90
6865;DHT22;3471;49.678;8.388;2023-01-23T03:26:05;3.00;99.90
6865;DHT22;3471;49.678;8.388;2023-01-23T03:28:30;3.00;99.90
6865;DHT22;3471;49.678;8.388;2023-01-23T03:31:15;3.00;99.90
6865;DHT22;3471;49.678;8.388;2023-01-23T03:33:42;3.10;99.90
6865;DHT22;3471;49.678;8.388;2023-01-23T03:36:09;3.10;99.90
6865;DHT22;3471;49.678;8.388;2023-01-23T03:38:35;3.10;99.90
6865;DHT22;3471;49.678;8.388;2023-01-23T03:41:02;3.10;99.90
6865;DHT22;3471;49.678;8.388;2023-01-23T03:43:46;3.10;99.90
6865;DHT22;3471;49.678;8.388;2023-01-23T03:46:12;3.10;99.90
6865;DHT22;3471;49.678;8.388;2023-01-23T03:48:37;3.00;99.90
6865;DHT22;3471;49.678;8.388;2023-01-23T03:51:04;3.00;99.90
6865;DHT22;3471;49.678;8.388;2023-01-23T03:53:30;3.00;99.90
6865;DHT22;3471;49.678;8.388;2023-01-23T03:55:55;3.00;99.90
6865;DHT22;3471;49.678;8.388;2023-01-23T03:58:21;3.00;99.90
6865;DHT22;3471;49.678;8.388;2023-01-23T04:00:47;2.90;99.90
6865;DHT22;3471;49.678;8.388;2023-01-23T04:03:12;3.00;99.90
6865;DHT22;3471;49.678;8.388;2023-01-23T04:05:38;2.90;99.90
6865;DHT22;3471;49.678;8.388;2023-01-23T04:08:04;2.90;99.90
6865;DHT22;3471;49.678;8.388;2023-01-23T04:10:29;2.90;99.90
6865;DHT22;3471;49.678;8.388;2023-01-23T04:12:55;2.80;99.90
6865;DHT22;3471;49.678;8.388;2023-01-23T04:15:20;2.80;99.90
6865;DHT22;3471;49.678;8.388;2023-01-23T04:17:46;2.90;99.90
6865;DHT22;3471;49.678;8.388;2023-01-23T04:20:12;2.80;99.90
6865;DHT22;3471;49.678;8.388;2023-01-23T04:22:38;2.90;99.90
6865;DHT22;3471;49.678;8.388;2023-01-23T04:25:04;2.90;99.90
6865;DHT22;3471;49.678;8.388;2023-01-23T04:27:30;2.90;99.90
6865;DHT22;3471;49.678;8.388;2023-01-23T04:29:56;2.90;99.90
6865;DHT22;3471;49.678;8.388;2023-01-23T04:32:23;2.90;99.90
6865;DHT22;3471;49.678;8.388;2023-01-23T04:34:48;2.90;99.90
6865;DHT22;3471;49.678;8.388;2023-01-23T04:37:14;2.90;99.90
6865;DHT22;3471;49.678;8.388;2023-01-23T04:39:40;2.90;99.90
6865;DHT22;3471;49.678;8.388;2023-01-23T04:42:05;2.90;99.90
6865;DHT22;3471;49.678;8.388;2023-01-23T04:44:31;3.00;99.90
6865;DHT22;3471;49.678;8.388;2023-01-23T04:46:56;3.00;99.90
6865;DHT22;3471;49.678;8.388;2023-01-23T04:49:23;3.00;99.90
6865;DHT22;3471;49.678;8.388;2023-01-23T04:51:49;3.00;99.90
6865;DHT22;3471;49.678;8.388;2023-01-23T04:54:15;3.00;99.90
6865;DHT22;3471;49.678;8.388;2023-01-23T04:56:41;3.00;99.90
6865;DHT22;3471;49.678;8.388;2023-01-23T04:59:07;3.00;99.90
6865;DHT22;3471;49.678;8.388;2023-01-23T05:01:33;3.00;99.90
6865;DHT22;3471;49.678;8.388;2023-01-23T05:03:59;3.10;99.90
6865;DHT22;3471;49.678;8.388;2023-01-23T05:06:24;3.10;99.90
6865;DHT22;3471;49.678;8.388;2023-01-23T05:08:50;3.10;99.90
6865;DHT22;3471;49.678;8.388;2023-01-23T05:11:16;3.10;99.90
6865;DHT22;3471;49.678;8.388;2023-01-23T05:13:43;3.10;99.90
6865;DHT22;3471;49.678;8.388;2023-01-23T05:16:08;3.10;99.90
6865;DHT22;3471;49.678;8.388;2023-01-23T05:18:34;3.10;99.90
6865;DHT22;3471;49.678;8.388;2023-01-23T05:20:59;3.10;99.90
6865;DHT22;3471;49.678;8.388;2023-01-23T05:23:25;3.20;99.90
6865;DHT22;3471;49.678;8.388;2023-01-23T05:25:50;3.10;99.90
6865;DHT22;3471;49.678;8.388;2023-01-23T05:28:16;3.20;99.90
6865;DHT22;3471;49.678;8.388;2023-01-23T05:30:42;3.20;99.90
6865;DHT22;3471;49.678;8.388;2023-01-23T05:33:07;3.20;99.90
6865;DHT22;3471;49.678;8.388;2023-01-23T05:35:33;3.20;99.90
6865;DHT22;3471;49.678;8.388;2023-01-23T05:37:59;3.20;99.90
6865;DHT22;3471;49.678;8.388;2023-01-23T05:40:25;3.20;99.90
6865;DHT22;3471;49.678;8.388;2023-01-23T05:42:50;3.30;99.90
6865;DHT22;3471;49.678;8.388;2023-01-23T05:45:16;3.30;99.90
6865;DHT22;3471;49.678;8.388;2023-01-23T05:47:42;3.30;99.90
6865;DHT22;3471;49.678;8.388;2023-01-23T05:50:13;3.20;99.90
6865;DHT22;3471;49.678;8.388;2023-01-23T05:52:39;3.20;99.90
6865;DHT22;3471;49.678;8.388;2023-01-23T05:55:05;3.30;99.90
6865;DHT22;3471;49.678;8.388;2023-01-23T05:57:32;3.30;99.90
6865;DHT22;3471;49.678;8.388;2023-01-23T05:59:57;3.30;99.90
6865;DHT22;3471;49.678;8.388;2023-01-23T06:02:23;3.30;99.90
6865;DHT22;3471;49.678;8.388;2023-01-23T06:04:49;3.30;99.90
6865;DHT22;3471;49.678;8.388;2023-01-23T06:07:16;3.40;99.90
6865;DHT22;3471;49.678;8.388;2023-01-23T06:09:41;3.40;99.90
6865;DHT22;3471;49.678;8.388;2023-01-23T06:12:08;3.30;99.90
6865;DHT22;3471;49.678;8.388;2023-01-23T06:14:34;3.30;99.90
6865;DHT22;3471;49.678;8.388;2023-01-23T06:16:59;3.30;99.90
6865;DHT22;3471;49.678;8.388;2023-01-23T06:19:25;3.30;99.90
6865;DHT22;3471;49.678;8.388;2023-01-23T06:21:51;3.30;99.90
6865;DHT22;3471;49.678;8.388;2023-01-23T06:24:16;3.30;99.90
6865;DHT22;3471;49.678;8.388;2023-01-23T06:26:42;3.30;99.90
6865;DHT22;3471;49.678;8.388;2023-01-23T06:29:07;3.30;99.90
6865;DHT22;3471;49.678;8.388;2023-01-23T06:31:33;3.30;99.90
6865;DHT22;3471;49.678;8.388;2023-01-23T06:33:59;3.40;99.90
6865;DHT22;3471;49.678;8.388;2023-01-23T06:36:25;3.30;99.90
6865;DHT22;3471;49.678;8.388;2023-01-23T06:38:50;3.30;99.90
6865;DHT22;3471;49.678;8.388;2023-01-23T06:41:16;3.30;99.90
6865;DHT22;3471;49.678;8.388;2023-01-23T06:43:42;3.30;99.90
6865;DHT22;3471;49.678;8.388;2023-01-23T06:46:08;3.40;99.90
6865;DHT22;3471;49.678;8.388;2023-01-23T06:48:35;3.30;99.90
6865;DHT22;3471;49.678;8.388;2023-01-23T06:51:01;3.30;99.90
6865;DHT22;3471;49.678;8.388;2023-01-23T06:53:27;3.30;99.90
6865;DHT22;3471;49.678;8.388;2023-01-23T06:55:53;3.30;99.90
6865;DHT22;3471;49.678;8.388;2023-01-23T06:58:18;3.30;99.90
6865;DHT22;3471;49.678;8.388;2023-01-23T07:00:46;3.40;99.90
6865;DHT22;3471;49.678;8.388;2023-01-23T07:03:13;3.40;99.90
6865;DHT22;3471;49.678;8.388;2023-01-23T07:05:39;3.30;99.90
6865;DHT22;3471;49.678;8.388;2023-01-23T07:08:08;3.30;99.90
6865;DHT22;3471;49.678;8.388;2023-01-23T07:10:35;3.40;99.90
6865;DHT22;3471;49.678;8.388;2023-01-23T07:13:03;3.40;99.90
6865;DHT22;3471;49.678;8.388;2023-01-23T07:15:29;3.40;99.90
6865;DHT22;3471;49.678;8.388;2023-01-23T07:17:54;3.40;99.90
6865;DHT22;3471;49.678;8.388;2023-01-23T07:20:20;3.40;99.90
6865;DHT22;3471;49.678;8.388;2023-01-23T07:22:45;3.40;99.90
6865;DHT22;3471;49.678;8.388;2023-01-23T07:25:11;3.30;99.90
6865;DHT22;3471;49.678;8.388;2023-01-23T07:27:37;3.40;99.90
6865;DHT22;3471;49.678;8.388;2023-01-23T07:30:02;3.40;99.90
6865;DHT22;3471;49.678;8.388;2023-01-23T07:32:28;3.40;99.90
6865;DHT22;3471;49.678;8.388;2023-01-23T07:34:54;3.40;99.90
6865;DHT22;3471;49.678;8.388;2023-01-23T07:37:19;3.50;99.90
6865;DHT22;3471;49.678;8.388;2023-01-23T07:39:45;3.50;99.90
6865;DHT22;3471;49.678;8.388;2023-01-23T07:42:10;3.50;99.90
6865;DHT22;3471;49.678;8.388;2023-01-23T07:44:36;3.50;99.90
6865;DHT22;3471;49.678;8.388;2023-01-23T07:47:02;3.50;99.90
6865;DHT22;3471;49.678;8.388;2023-01-23T07:49:27;3.50;99.90
6865;DHT22;3471;49.678;8.388;2023-01-23T07:51:53;3.60;99.90
6865;DHT22;3471;49.678;8.388;2023-01-23T07:54:18;3.50;99.90
6865;DHT22;3471;49.678;8.388;2023-01-23T07:56:44;3.50;99.90
6865;DHT22;3471;49.678;8.388;2023-01-23T07:59:11;3.50;99.90
6865;DHT22;3471;49.678;8.388;2023-01-23T08:01:37;3.60;99.90
6865;DHT22;3471;49.678;8.388;2023-01-23T08:04:02;3.60;99.90
6865;DHT22;3471;49.678;8.388;2023-01-23T08:06:28;3.60;99.90
6865;DHT22;3471;49.678;8.388;2023-01-23T08:08:54;3.60;99.90
6865;DHT22;3471;49.678;8.388;2023-01-23T08:11:19;3.70;99.90
6865;DHT22;3471;49.678;8.388;2023-01-23T08:13:48;3.70;99.90
6865;DHT22;3471;49.678;8.388;2023-01-23T08:16:14;3.70;99.90
6865;DHT22;3471;49.678;8.388;2023-01-23T08:18:40;3.70;99.90
6865;DHT22;3471;49.678;8.388;2023-01-23T08:21:05;3.70;99.90
6865;DHT22;3471;49.678;8.388;2023-01-23T08:23:32;3.80;99.90
6865;DHT22;3471;49.678;8.388;2023-01-23T08:26:00;3.80;99.90
6865;DHT22;3471;49.678;8.388;2023-01-23T08:28:26;3.90;99.90
6865;DHT22;3471;49.678;8.388;2023-01-23T08:30:52;4.00;99.90
6865;DHT22;3471;49.678;8.388;2023-01-23T08:33:18;4.10;99.90
6865;DHT22;3471;49.678;8.388;2023-01-23T08:35:52;4.10;99.90
6865;DHT22;3471;49.678;8.388;2023-01-23T08:38:18;4.10;99.90
6865;DHT22;3471;49.678;8.388;2023-01-23T08:40:45;4.10;99.90
6865;DHT22;3471;49.678;8.388;2023-01-23T08:43:10;4.10;99.90
6865;DHT22;3471;49.678;8.388;2023-01-23T08:45:38;4.20;99.90
6865;DHT22;3471;49.678;8.388;2023-01-23T08:48:04;4.20;99.90
6865;DHT22;3471;49.678;8.388;2023-01-23T08:50:30;4.20;99.90
6865;DHT22;3471;49.678;8.388;2023-01-23T08:52:55;4.20;99.90
6865;DHT22;3471;49.678;8.388;2023-01-23T08:55:21;4.20;99.90
6865;DHT22;3471;49.678;8.388;2023-01-23T08:57:46;4.20;99.90
6865;DHT22;3471;49.678;8.388;2023-01-23T09:00:12;4.20;99.90
6865;DHT22;3471;49.678;8.388;2023-01-23T09:02:38;4.10;99.90
6865;DHT22;3471;49.678;8.388;2023-01-23T09:05:04;4.20;99.90
6865;DHT22;3471;49.678;8.388;2023-01-23T09:07:30;4.20;99.90
6865;DHT22;3471;49.678;8.388;2023-01-23T09:09:55;4.20;99.90
6865;DHT22;3471;49.678;8.388;2023-01-23T09:12:21;4.20;99.90
6865;DHT22;3471;49.678;8.388;2023-01-23T09:14:46;4.20;99.90
6865;DHT22;3471;49.678;8.388;2023-01-23T09:17:12;4.20;99.90
6865;DHT22;3471;49.678;8.388;2023-01-23T09:19:38;4.30;99.90
6865;DHT22;3471;49.678;8.388;2023-01-23T09:22:03;4.30;99.90
6865;DHT22;3471;49.678;8.388;2023-01-23T09:24:29;4.30;99.90
6865;DHT22;3471;49.678;8.388;2023-01-23T09:26:54;4.30;99.90
6865;DHT22;3471;49.678;8.388;2023-01-23T09:29:20;4.30;99.90
6865;DHT22;3471;49.678;8.388;2023-01-23T09:31:45;4.30;99.90
6865;DHT22;3471;49.678;8.388;2023-01-23T09:34:11;4.30;99.90
6865;DHT22;3471;49.678;8.388;2023-01-23T09:36:37;4.30;99.90
6865;DHT22;3471;49.678;8.388;2023-01-23T09:39:02;4.40;99.90
6865;DHT22;3471;49.678;8.388;2023-01-23T09:41:29;4.40;99.90
6865;DHT22;3471;49.678;8.388;2023-01-23T09:46:40;4.40;99.90
6865;DHT22;3471;49.678;8.388;2023-01-23T09:49:23;4.40;99.90
6865;DHT22;3471;49.678;8.388;2023-01-23T09:52:11;4.40;99.90
6865;DHT22;3471;49.678;8.388;2023-01-23T09:57:54;4.40;99.90
6865;DHT22;3471;49.678;8.388;2023-01-23T10:00:26;4.30;99.90
6865;DHT22;3471;49.678;8.388;2023-01-23T10:02:53;4.40;99.90
6865;DHT22;3471;49.678;8.388;2023-01-23T10:11:06;4.40;99.90
6865;DHT22;3471;49.678;8.388;2023-01-23T10:14:13;4.40;99.90
6865;DHT22;3471;49.678;8.388;2023-01-23T10:17:05;4.40;99.90
6865;DHT22;3471;49.678;8.388;2023-01-23T10:20:04;4.50;99.90
6865;DHT22;3471;49.678;8.388;2023-01-23T10:24:53;4.50;99.90
6865;DHT22;3471;49.678;8.388;2023-01-23T10:27:33;4.60;99.90
6865;DHT22;3471;49.678;8.388;2023-01-23T10:30:12;4.60;99.90
6865;DHT22;3471;49.678;8.388;2023-01-23T10:32:59;4.60;99.90
6865;DHT22;3471;49.678;8.388;2023-01-23T10:40:47;4.80;99.90
6865;DHT22;3471;49.678;8.388;2023-01-23T10:43:32;4.80;99.90
6865;DHT22;3471;49.678;8.388;2023-01-23T10:45:57;4.80;99.90
6865;DHT22;3471;49.678;8.388;2023-01-23T10:48:40;4.80;99.90
6865;DHT22;3471;49.678;8.388;2023-01-23T10:56:30;5.00;99.90
6865;DHT22;3471;49.678;8.388;2023-01-23T10:58:58;4.90;99.90
6865;DHT22;3471;49.678;8.388;2023-01-23T11:01:30;5.00;99.90
6865;DHT22;3471;49.678;8.388;2023-01-23T11:03:56;5.00;99.90
6865;DHT22;3471;49.678;8.388;2023-01-23T11:06:26;5.00;99.90
6865;DHT22;3471;49.678;8.388;2023-01-23T11:08:58;5.00;99.90
6865;DHT22;3471;49.678;8.388;2023-01-23T11:11:31;5.00;99.90
6865;DHT22;3471;49.678;8.388;2023-01-23T11:14:05;4.90;99.90
6865;DHT22;3471;49.678;8.388;2023-01-23T11:16:31;4.90;99.90
6865;DHT22;3471;49.678;8.388;2023-01-23T11:21:37;5.00;99.90
6865;DHT22;3471;49.678;8.388;2023-01-23T11:24:29;5.00;99.90
6865;DHT22;3471;49.678;8.388;2023-01-23T11:27:00;5.00;99.90
6865;DHT22;3471;49.678;8.388;2023-01-23T11:29:27;5.10;99.90
6865;DHT22;3471;49.678;8.388;2023-01-23T11:32:04;5.10;99.90
6865;DHT22;3471;49.678;8.388;2023-01-23T11:34:52;5.10;99.90
6865;DHT22;3471;49.678;8.388;2023-01-23T11:37:29;5.10;99.90
6865;DHT22;3471;49.678;8.388;2023-01-23T11:40:12;5.10;99.90
6865;DHT22;3471;49.678;8.388;2023-01-23T11:42:42;5.00;99.90
6865;DHT22;3471;49.678;8.388;2023-01-23T11:46:27;5.00;99.90
6865;DHT22;3471;49.678;8.388;2023-01-23T11:51:19;5.00;99.90
6865;DHT22;3471;49.678;8.388;2023-01-23T11:59:31;5.00;99.90
6865;DHT22;3471;49.678;8.388;2023-01-23T12:02:03;5.00;99.90
6865;DHT22;3471;49.678;8.388;2023-01-23T12:07:22;4.90;99.90
6865;DHT22;3471;49.678;8.388;2023-01-23T12:15:17;5.10;99.90
6865;DHT22;3471;49.678;8.388;2023-01-23T12:26:15;5.20;99.90
6865;DHT22;3471;49.678;8.388;2023-01-23T12:29:05;5.30;99.90
6865;DHT22;3471;49.678;8.388;2023-01-23T12:31:42;5.30;99.90
6865;DHT22;3471;49.678;8.388;2023-01-23T12:37:07;5.30;99.90
6865;DHT22;3471;49.678;8.388;2023-01-23T12:39:58;5.40;99.90
6865;DHT22;3471;49.678;8.388;2023-01-23T12:42:31;5.40;99.90
6865;DHT22;3471;49.678;8.388;2023-01-23T12:45:16;5.40;99.90
6865;DHT22;3471;49.678;8.388;2023-01-23T12:47:56;5.50;99.90
6865;DHT22;3471;49.678;8.388;2023-01-23T12:50:50;5.50;99.90
6865;DHT22;3471;49.678;8.388;2023-01-23T12:53:19;5.60;99.90
6865;DHT22;3471;49.678;8.388;2023-01-23T12:58:31;5.70;99.90
6865;DHT22;3471;49.678;8.388;2023-01-23T13:03:52;5.70;99.90
6865;DHT22;3471;49.678;8.388;2023-01-23T13:12:09;5.70;99.90
6865;DHT22;3471;49.678;8.388;2023-01-23T13:14:43;5.60;99.90
6865;DHT22;3471;49.678;8.388;2023-01-23T13:20:18;5.60;99.90
6865;DHT22;3471;49.678;8.388;2023-01-23T13:25:48;5.60;99.90
6865;DHT22;3471;49.678;8.388;2023-01-23T13:28:34;5.60;99.90
6865;DHT22;3471;49.678;8.388;2023-01-23T13:31:04;5.60;99.90
6865;DHT22;3471;49.678;8.388;2023-01-23T13:36:34;5.50;99.90
6865;DHT22;3471;49.678;8.388;2023-01-23T13:48:01;5.90;99.90
6865;DHT22;3471;49.678;8.388;2023-01-23T13:51:15;6.20;99.90
6865;DHT22;3471;49.678;8.388;2023-01-23T13:53:47;6.40;99.90
6865;DHT22;3471;49.678;8.388;2023-01-23T13:56:32;6.40;99.90
6865;DHT22;3471;49.678;8.388;2023-01-23T13:59:13;6.40;99.90
6865;DHT22;3471;49.678;8.388;2023-01-23T14:01:46;6.50;99.90
6865;DHT22;3471;49.678;8.388;2023-01-23T14:04:33;6.40;99.90
6865;DHT22;3471;49.678;8.388;2023-01-23T14:07:29;6.40;99.90
6865;DHT22;3471;49.678;8.388;2023-01-23T14:10:30;6.40;99.90
6865;DHT22;3471;49.678;8.388;2023-01-23T14:13:09;6.50;99.90
6865;DHT22;3471;49.678;8.388;2023-01-23T14:15:37;6.50;99.90
6865;DHT22;3471;49.678;8.388;2023-01-23T14:18:52;6.60;99.90
6865;DHT22;3471;49.678;8.388;2023-01-23T14:21:22;6.60;99.90
6865;DHT22;3471;49.678;8.388;2023-01-23T14:23:50;6.70;99.90
6865;DHT22;3471;49.678;8.388;2023-01-23T14:26:20;6.70;99.90
6865;DHT22;3471;49.678;8.388;2023-01-23T14:28:53;6.80;99.90
6865;DHT22;3471;49.678;8.388;2023-01-23T14:31:22;7.00;99.90
6865;DHT22;3471;49.678;8.388;2023-01-23T14:33:47;7.30;99.90
6865;DHT22;3471;49.678;8.388;2023-01-23T14:36:17;7.70;99.90
6865;DHT22;3471;49.678;8.388;2023-01-23T14:38:45;8.40;99.90
6865;DHT22;3471;49.678;8.388;2023-01-23T14:41:12;9.30;99.90
6865;DHT22;3471;49.678;8.388;2023-01-23T14:43:39;9.90;99.90
6865;DHT22;3471;49.678;8.388;2023-01-23T14:48:40;10.80;99.90
6865;DHT22;3471;49.678;8.388;2023-01-23T14:51:29;11.50;99.90
6865;DHT22;3471;49.678;8.388;2023-01-23T14:56:25;13.00;99.90
6865;DHT22;3471;49.678;8.388;2023-01-23T14:58:53;13.50;99.90
6865;DHT22;3471;49.678;8.388;2023-01-23T15:01:20;13.80;99.90
6865;DHT22;3471;49.678;8.388;2023-01-23T15:03:58;13.90;99.90
6865;DHT22;3471;49.678;8.388;2023-01-23T15:06:23;13.90;99.90
6865;DHT22;3471;49.678;8.388;2023-01-23T15:08:50;13.60;99.90
6865;DHT22;3471;49.678;8.388;2023-01-23T15:11:23;13.00;99.90
6865;DHT22;3471;49.678;8.388;2023-01-23T15:13:51;12.30;99.90
6865;DHT22;3471;49.678;8.388;2023-01-23T15:16:24;11.60;99.90
6865;DHT22;3471;49.678;8.388;2023-01-23T15:19:02;11.00;99.90
6865;DHT22;3471;49.678;8.388;2023-01-23T15:21:39;10.30;99.90
6865;DHT22;3471;49.678;8.388;2023-01-23T15:26:35;9.20;99.90
6865;DHT22;3471;49.678;8.388;2023-01-23T15:37:16;7.60;99.90
6865;DHT22;3471;49.678;8.388;2023-01-23T15:39:50;7.30;99.90
6865;DHT22;3471;49.678;8.388;2023-01-23T15:44:42;6.70;99.90
6865;DHT22;3471;49.678;8.388;2023-01-23T15:47:08;6.40;99.90
6865;DHT22;3471;49.678;8.388;2023-01-23T15:49:35;6.20;99.90
6865;DHT22;3471;49.678;8.388;2023-01-23T15:54:40;5.80;99.90
6865;DHT22;3471;49.678;8.388;2023-01-23T15:57:06;5.70;99.90
6865;DHT22;3471;49.678;8.388;2023-01-23T15:59:33;5.60;99.90
6865;DHT22;3471;49.678;8.388;2023-01-23T16:01:59;5.50;99.90
6865;DHT22;3471;49.678;8.388;2023-01-23T16:04:25;5.30;99.90
6865;DHT22;3471;49.678;8.388;2023-01-23T16:06:50;5.30;99.90
6865;DHT22;3471;49.678;8.388;2023-01-23T16:09:27;5.20;99.90
6865;DHT22;3471;49.678;8.388;2023-01-23T16:11:55;5.10;99.90
6865;DHT22;3471;49.678;8.388;2023-01-23T16:14:21;5.00;99.90
6865;DHT22;3471;49.678;8.388;2023-01-23T16:16:46;5.00;99.90
6865;DHT22;3471;49.678;8.388;2023-01-23T16:19:12;4.90;99.90
6865;DHT22;3471;49.678;8.388;2023-01-23T16:21:39;4.80;99.90
6865;DHT22;3471;49.678;8.388;2023-01-23T16:24:15;4.80;99.90
6865;DHT22;3471;49.678;8.388;2023-01-23T16:26:41;4.80;99.90
6865;DHT22;3471;49.678;8.388;2023-01-23T16:29:26;4.70;99.90
6865;DHT22;3471;49.678;8.388;2023-01-23T16:31:53;4.70;99.90
6865;DHT22;3471;49.678;8.388;2023-01-23T16:34:19;4.60;99.90
6865;DHT22;3471;49.678;8.388;2023-01-23T16:36:45;4.60;99.90
6865;DHT22;3471;49.678;8.388;2023-01-23T16:39:20;4.50;99.90
6865;DHT22;3471;49.678;8.388;2023-01-23T16:41:48;4.50;99.90
6865;DHT22;3471;49.678;8.388;2023-01-23T16:44:18;4.40;99.90
6865;DHT22;3471;49.678;8.388;2023-01-23T16:46:44;4.30;99.90
6865;DHT22;3471;49.678;8.388;2023-01-23T16:49:11;4.30;99.90
6865;DHT22;3471;49.678;8.388;2023-01-23T16:51:37;4.30;99.90
6865;DHT22;3471;49.678;8.388;2023-01-23T16:54:04;4.20;99.90
6865;DHT22;3471;49.678;8.388;2023-01-23T16:58:56;4.20;99.90
6865;DHT22;3471;49.678;8.388;2023-01-23T17:01:22;4.10;99.90
6865;DHT22;3471;49.678;8.388;2023-01-23T17:03:58;4.10;99.90
6865;DHT22;3471;49.678;8.388;2023-01-23T17:06:25;4.00;99.90
6865;DHT22;3471;49.678;8.388;2023-01-23T17:08:50;4.00;99.90
6865;DHT22;3471;49.678;8.388;2023-01-23T17:14:01;3.90;99.90
6865;DHT22;3471;49.678;8.388;2023-01-23T17:16:28;3.90;99.90
6865;DHT22;3471;49.678;8.388;2023-01-23T17:18:56;3.90;99.90
6865;DHT22;3471;49.678;8.388;2023-01-23T17:21:32;3.80;99.90
6865;DHT22;3471;49.678;8.388;2023-01-23T17:23:58;3.80;99.90
6865;DHT22;3471;49.678;8.388;2023-01-23T17:26:24;3.70;99.90
6865;DHT22;3471;49.678;8.388;2023-01-23T17:28:50;3.70;99.90
6865;DHT22;3471;49.678;8.388;2023-01-23T17:31:19;3.70;99.90
6865;DHT22;3471;49.678;8.388;2023-01-23T17:33:46;3.70;99.90
6865;DHT22;3471;49.678;8.388;2023-01-23T17:36:12;3.60;99.90
6865;DHT22;3471;49.678;8.388;2023-01-23T17:38:38;3.60;99.90
6865;DHT22;3471;49.678;8.388;2023-01-23T17:41:05;3.60;99.90
6865;DHT22;3471;49.678;8.388;2023-01-23T17:43:31;3.50;99.90
6865;DHT22;3471;49.678;8.388;2023-01-23T17:45:57;3.50;99.90
6865;DHT22;3471;49.678;8.388;2023-01-23T17:48:28;3.50;99.90
6865;DHT22;3471;49.678;8.388;2023-01-23T17:50:55;3.50;99.90
6865;DHT22;3471;49.678;8.388;2023-01-23T17:53:20;3.40;99.90
6865;DHT22;3471;49.678;8.388;2023-01-23T17:55:48;3.40;99.90
6865;DHT22;3471;49.678;8.388;2023-01-23T17:58:16;3.40;99.90
6865;DHT22;3471;49.678;8.388;2023-01-23T18:00:42;3.40;99.90
6865;DHT22;3471;49.678;8.388;2023-01-23T18:03:12;3.40;99.90
6865;DHT22;3471;49.678;8.388;2023-01-23T18:05:38;3.40;99.90
6865;DHT22;3471;49.678;8.388;2023-01-23T18:08:05;3.40;99.90
6865;DHT22;3471;49.678;8.388;2023-01-23T18:10:32;3.40;99.90
6865;DHT22;3471;49.678;8.388;2023-01-23T18:15:49;3.40;99.90
6865;DHT22;3471;49.678;8.388;2023-01-23T18:20:50;3.30;99.90
6865;DHT22;3471;49.678;8.388;2023-01-23T18:23:20;3.30;99.90
6865;DHT22;3471;49.678;8.388;2023-01-23T18:26:04;3.30;99.90
6865;DHT22;3471;49.678;8.388;2023-01-23T18:28:38;3.30;99.90
6865;DHT22;3471;49.678;8.388;2023-01-23T18:31:22;3.30;99.90
6865;DHT22;3471;49.678;8.388;2023-01-23T18:36:44;3.20;99.90